Time;durP1;ratioP1;P1;durP2;ratioP2;P2;SDS_P1;SDS_P2;PMS_P1;PMS_P2;Temp;Humidity;BMP_temperature;BMP_pressure;BME280_temperature;BME280_humidity;BME280_pressure;Samples;Min_cycle;Max_cycle;Signal;HPM_P1;HPM_P2
2024/02/03 00:01:26;;;;;;;13.82;7.65;;;8.30;99.90;;;;;;5078775;28;20032;-91
2024/02/03 00:03:51;;;;;;;17.48;7.70;;;8.20;99.90;;;;;;5078586;28;20118;-93
2024/02/03 00:06:17;;;;;;;17.20;8.68;;;8.30;99.90;;;;;;5078651;28;20033;-92
2024/02/03 00:08:43;;;;;;;16.10;8.77;;;8.30;99.90;;;;;;5061285;28;20039;-93
2024/02/03 00:11:09;;;;;;;14.13;7.20;;;8.30;99.90;;;;;;5078564;28;20031;-91
2024/02/03 00:13:35;;;;;;;13.20;7.93;;;8.30;99.90;;;;;;5078149;28;20052;-92
2024/02/03 00:16:01;;;;;;;15.75;7.88;;;8.30;99.90;;;;;;5079957;28;20028;-93
2024/02/03 00:18:27;;;;;;;13.57;8.43;;;8.40;99.90;;;;;;5079078;28;20021;-92
2024/02/03 00:20:53;;;;;;;14.93;7.95;;;8.40;99.90;;;;;;5075870;28;20035;-92
2024/02/03 00:23:19;;;;;;;18.88;7.53;;;8.40;99.90;;;;;;5079091;28;20056;-92
2024/02/03 00:25:45;;;;;;;17.38;7.72;;;8.40;99.90;;;;;;5077973;28;20071;-92
2024/02/03 00:28:10;;;;;;;16.10;8.55;;;8.40;99.90;;;;;;5060419;28;20409;-91
2024/02/03 00:30:36;;;;;;;17.38;8.90;;;8.40;99.90;;;;;;5076677;28;20441;-93
2024/02/03 00:33:02;;;;;;;14.20;8.23;;;8.40;99.90;;;;;;5058552;28;20017;-92
2024/02/03 00:35:27;;;;;;;16.08;9.07;;;8.40;99.90;;;;;;5058662;28;20025;-92
2024/02/03 00:37:53;;;;;;;13.43;7.60;;;8.40;99.90;;;;;;5059602;28;20040;-91
2024/02/03 00:40:19;;;;;;;13.75;8.07;;;8.30;99.90;;;;;;5058172;28;20078;-92
2024/02/03 00:42:45;;;;;;;17.55;8.70;;;8.30;99.90;;;;;;5060136;28;20032;-92
2024/02/03 00:45:10;;;;;;;13.50;8.48;;;8.20;99.90;;;;;;5058672;28;20035;-91
2024/02/03 00:47:36;;;;;;;14.55;7.80;;;8.20;99.90;;;;;;5058630;28;20048;-92
2024/02/03 00:50:02;;;;;;;14.82;7.63;;;8.20;99.90;;;;;;5059179;28;20021;-92
2024/02/03 00:52:28;;;;;;;15.60;8.38;;;8.20;99.90;;;;;;5078485;28;20052;-92
2024/02/03 00:54:53;;;;;;;12.60;7.32;;;8.20;99.90;;;;;;5060753;28;20036;-93
2024/02/03 00:57:19;;;;;;;13.18;7.32;;;8.10;99.90;;;;;;5058134;28;20025;-93
2024/02/03 00:59:45;;;;;;;16.35;8.32;;;8.00;99.90;;;;;;5066193;28;20097;-92
2024/02/03 01:02:11;;;;;;;14.00;6.95;;;8.10;99.90;;;;;;5057861;28;20037;-93
2024/02/03 01:04:37;;;;;;;18.35;7.97;;;8.10;99.90;;;;;;5069838;28;20035;-92
2024/02/03 01:07:03;;;;;;;15.88;8.23;;;8.00;99.90;;;;;;5078931;28;20479;-92
2024/02/03 01:09:29;;;;;;;14.10;7.88;;;8.20;99.90;;;;;;5078160;28;20052;-92
2024/02/03 01:11:55;;;;;;;13.70;7.63;;;8.10;99.90;;;;;;5077322;28;20028;-91
2024/02/03 01:14:21;;;;;;;13.70;7.85;;;8.10;99.90;;;;;;5078360;28;20036;-92
2024/02/03 01:16:48;;;;;;;15.98;8.13;;;8.10;99.90;;;;;;5078551;28;20479;-92
2024/02/03 01:19:14;;;;;;;13.10;7.90;;;8.10;99.90;;;;;;5081116;28;20021;-93
2024/02/03 01:21:40;;;;;;;14.77;8.73;;;8.20;99.90;;;;;;5079420;28;20084;-92
2024/02/03 01:24:06;;;;;;;14.70;8.73;;;8.10;99.90;;;;;;5050015;28;20124;-93
2024/02/03 01:26:31;;;;;;;17.23;10.15;;;8.20;99.90;;;;;;5064435;28;20060;-92
2024/02/03 01:28:57;;;;;;;15.23;6.85;;;8.20;99.90;;;;;;5057826;28;20033;-91
2024/02/03 01:31:23;;;;;;;14.90;7.97;;;8.20;99.90;;;;;;5057914;28;20029;-91
2024/02/03 01:33:49;;;;;;;16.90;8.13;;;8.20;99.90;;;;;;5065826;28;20559;-91
2024/02/03 01:36:14;;;;;;;15.07;8.20;;;8.20;99.90;;;;;;5074347;28;20024;-91
2024/02/03 01:38:44;;;;;;;16.08;8.23;;;8.20;99.90;;;;;;5083766;28;20043;-92
2024/02/03 01:41:09;;;;;;;15.43;8.90;;;8.20;99.90;;;;;;5078189;28;20027;-93
2024/02/03 01:43:35;;;;;;;16.33;8.45;;;8.20;99.90;;;;;;5078524;28;20390;-91
2024/02/03 01:46:01;;;;;;;16.30;8.98;;;8.20;99.90;;;;;;5078602;28;20062;-93
2024/02/03 01:48:27;;;;;;;15.13;7.78;;;8.20;99.90;;;;;;5077994;28;20036;-92
2024/02/03 01:50:53;;;;;;;15.40;7.72;;;8.10;99.90;;;;;;5077294;28;20028;-91
2024/02/03 01:53:21;;;;;;;13.43;7.28;;;8.10;99.90;;;;;;5065445;28;20018;-91
2024/02/03 01:55:48;;;;;;;17.30;8.32;;;8.00;99.90;;;;;;5053384;28;20025;-93
2024/02/03 01:58:14;;;;;;;;;;;8.00;99.90;;;;;;5063937;28;20043;-92
2024/02/03 02:00:40;;;;;;;15.02;8.05;;;8.10;99.90;;;;;;5057733;28;19908;-91
2024/02/03 02:03:06;;;;;;;15.18;8.25;;;8.00;99.90;;;;;;5057029;28;20025;-92
2024/02/03 02:05:31;;;;;;;16.52;8.27;;;8.10;99.90;;;;;;5057115;28;20025;-92
2024/02/03 02:07:57;;;;;;;14.50;8.70;;;8.10;99.90;;;;;;5058205;28;20013;-91
2024/02/03 02:10:23;;;;;;;17.30;9.52;;;8.00;99.90;;;;;;5076380;28;20075;-92
2024/02/03 02:12:49;;;;;;;16.23;8.85;;;8.00;99.90;;;;;;5076675;28;20020;-92
2024/02/03 02:15:15;;;;;;;14.52;8.38;;;8.00;99.90;;;;;;5057427;28;20033;-93
2024/02/03 02:17:40;;;;;;;13.23;6.80;;;8.00;99.90;;;;;;5057519;28;20510;-93
2024/02/03 02:20:07;;;;;;;16.55;7.55;;;8.00;99.90;;;;;;5058504;28;20025;-91
2024/02/03 02:22:34;;;;;;;14.07;6.60;;;8.00;99.90;;;;;;5059829;28;20376;-92
2024/02/03 02:25:00;;;;;;;15.68;7.63;;;8.00;99.90;;;;;;5068172;28;20028;-93
2024/02/03 02:27:26;;;;;;;13.63;7.78;;;8.00;99.90;;;;;;5052003;28;20017;-93
2024/02/03 02:29:51;;;;;;;13.35;7.32;;;8.00;99.90;;;;;;5058196;28;20541;-92
2024/02/03 02:32:17;;;;;;;14.93;7.18;;;8.00;99.90;;;;;;5079615;28;20115;-92
2024/02/03 02:34:43;;;;;;;18.65;8.02;;;8.00;99.90;;;;;;5081026;28;20409;-92
2024/02/03 02:37:09;;;;;;;12.10;7.15;;;7.90;99.90;;;;;;5051853;28;20032;-92
2024/02/03 02:39:35;;;;;;;14.05;6.95;;;7.90;99.90;;;;;;5073902;28;20025;-93
2024/02/03 02:42:00;;;;;;;13.18;7.07;;;7.90;99.90;;;;;;5079159;28;20096;-91
2024/02/03 02:44:26;;;;;;;12.15;7.40;;;8.00;99.90;;;;;;5062937;28;20109;-92
2024/02/03 02:46:52;;;;;;;15.88;7.93;;;8.00;99.90;;;;;;5080316;28;20119;-92
2024/02/03 02:49:17;;;;;;;15.25;6.93;;;7.90;99.90;;;;;;5079322;28;20054;-93
2024/02/03 02:51:43;;;;;;;16.17;8.30;;;7.90;99.90;;;;;;5078955;28;20021;-93
2024/02/03 02:54:09;;;;;;;17.27;7.05;;;7.90;99.90;;;;;;5079549;28;20425;-91
2024/02/03 02:56:35;;;;;;;16.08;7.57;;;7.90;99.90;;;;;;5079048;28;20500;-91
2024/02/03 02:59:00;;;;;;;17.67;8.68;;;7.90;99.90;;;;;;5079647;28;20028;-91
2024/02/03 03:01:26;;;;;;;14.43;6.78;;;7.90;99.90;;;;;;5065095;28;20087;-92
2024/02/03 03:03:55;;;;;;;14.25;6.93;;;7.90;99.90;;;;;;5059621;28;20025;-92
2024/02/03 03:06:21;;;;;;;15.13;7.90;;;7.90;99.90;;;;;;5070435;28;20086;-92
2024/02/03 03:08:46;;;;;;;11.23;6.35;;;7.90;99.90;;;;;;5078621;28;20020;-91
2024/02/03 03:11:12;;;;;;;11.77;6.57;;;7.90;99.90;;;;;;5061272;28;20075;-92
2024/02/03 03:13:39;;;;;;;12.90;6.57;;;7.80;99.90;;;;;;5062469;28;20032;-92
2024/02/03 03:16:08;;;;;;;15.30;7.72;;;7.90;99.90;;;;;;5060050;28;20021;-91
2024/02/03 03:18:37;;;;;;;13.57;6.53;;;7.90;99.90;;;;;;5064815;28;20394;-91
2024/02/03 03:21:03;;;;;;;12.38;6.72;;;7.80;99.90;;;;;;5087859;28;20047;-91
2024/02/03 03:23:29;;;;;;;16.92;7.70;;;7.80;99.90;;;;;;5078298;28;20025;-91
2024/02/03 03:25:55;;;;;;;13.77;6.90;;;7.80;99.90;;;;;;5060114;28;20036;-91
2024/02/03 03:28:21;;;;;;;15.63;7.43;;;7.90;99.90;;;;;;5061714;28;20122;-92
2024/02/03 03:30:46;;;;;;;13.13;6.97;;;7.80;99.90;;;;;;5079998;28;20533;-91
2024/02/03 03:33:12;;;;;;;10.73;6.22;;;7.80;99.90;;;;;;5079334;28;20075;-92
2024/02/03 03:35:38;;;;;;;11.82;6.22;;;7.80;99.90;;;;;;5079728;28;20031;-92
2024/02/03 03:38:06;;;;;;;13.00;7.45;;;7.80;99.90;;;;;;5079863;28;20044;-94
2024/02/03 03:40:32;;;;;;;12.43;7.05;;;7.80;99.90;;;;;;5078818;28;20058;-91
2024/02/03 03:42:58;;;;;;;11.52;6.80;;;7.80;99.90;;;;;;5078029;28;20052;-92
2024/02/03 03:45:25;;;;;;;12.18;7.20;;;7.80;99.90;;;;;;5078984;28;20530;-93
2024/02/03 03:47:51;;;;;;;13.15;6.70;;;7.80;99.90;;;;;;5062136;28;20020;-91
2024/02/03 03:50:16;;;;;;;16.02;7.53;;;7.80;99.90;;;;;;5058536;28;20017;-91
2024/02/03 03:52:42;;;;;;;12.88;6.72;;;7.80;99.90;;;;;;5066805;28;20028;-92
2024/02/03 03:55:08;;;;;;;13.90;6.88;;;7.80;99.90;;;;;;5094756;28;20028;-91
2024/02/03 03:57:33;;;;;;;13.55;6.68;;;7.80;99.90;;;;;;5090465;28;20055;-92
2024/02/03 03:59:59;;;;;;;12.88;7.05;;;7.80;99.90;;;;;;5081558;28;20048;-92
2024/02/03 04:02:25;;;;;;;13.18;6.80;;;7.80;99.90;;;;;;5079364;28;20036;-91
2024/02/03 04:04:51;;;;;;;12.88;6.78;;;7.80;99.90;;;;;;5080930;28;20048;-92
2024/02/03 04:07:16;;;;;;;14.18;7.22;;;7.70;99.90;;;;;;5069387;28;20163;-92
2024/02/03 04:09:48;;;;;;;14.57;7.32;;;7.70;99.90;;;;;;5058948;28;20025;-90
2024/02/03 04:12:14;;;;;;;14.55;7.53;;;7.70;99.90;;;;;;5058809;28;20552;-92
2024/02/03 04:14:42;;;;;;;15.13;8.00;;;7.70;99.90;;;;;;5059720;28;20033;-92
2024/02/03 04:17:08;;;;;;;15.10;8.40;;;7.70;99.90;;;;;;5061980;28;20024;-93
2024/02/03 04:19:34;;;;;;;14.43;7.30;;;7.70;99.90;;;;;;5078757;28;20032;-91
2024/02/03 04:22:01;;;;;;;17.85;8.80;;;7.70;99.90;;;;;;5057791;28;20528;-93
2024/02/03 04:24:26;;;;;;;16.45;7.70;;;7.70;99.90;;;;;;5065804;28;20020;-92
2024/02/03 04:26:53;;;;;;;13.85;7.88;;;7.70;99.90;;;;;;5071785;28;20017;-93
2024/02/03 04:29:19;;;;;;;15.38;8.65;;;7.70;99.90;;;;;;5071144;28;20021;-92
2024/02/03 04:31:45;;;;;;;15.88;8.05;;;7.70;99.90;;;;;;5070635;28;20021;-92
2024/02/03 04:34:11;;;;;;;19.77;9.57;;;7.70;99.90;;;;;;5058651;28;20100;-92
2024/02/03 04:36:37;;;;;;;18.42;8.18;;;7.70;99.90;;;;;;5076429;28;20025;-92
2024/02/03 04:39:04;;;;;;;18.88;8.90;;;7.70;99.90;;;;;;5078588;28;20490;-92
2024/02/03 04:41:30;;;;;;;16.75;7.95;;;7.60;99.90;;;;;;5078829;28;20063;-92
2024/02/03 04:43:55;;;;;;;14.88;7.85;;;7.70;99.90;;;;;;5064269;28;20048;-92
2024/02/03 04:46:21;;;;;;;20.73;9.57;;;7.60;99.90;;;;;;5070643;28;20063;-91
2024/02/03 04:48:47;;;;;;;18.48;9.15;;;7.70;99.90;;;;;;5062480;28;20077;-93
2024/02/03 04:51:14;;;;;;;16.58;7.97;;;7.70;99.90;;;;;;5060585;28;20024;-93
2024/02/03 04:53:40;;;;;;;18.42;9.50;;;7.60;99.90;;;;;;5079232;28;20027;-92
2024/02/03 04:56:07;;;;;;;17.92;7.38;;;7.70;99.90;;;;;;5079377;28;20027;-92
2024/02/03 04:58:33;;;;;;;18.05;8.50;;;7.60;99.90;;;;;;5057700;28;20079;-91
2024/02/03 05:00:59;;;;;;;16.27;8.05;;;7.60;99.90;;;;;;5058441;28;20036;-91
2024/02/03 05:03:25;;;;;;;15.80;8.65;;;7.60;99.90;;;;;;5058097;28;20488;-92
2024/02/03 05:05:50;;;;;;;18.48;9.63;;;7.60;99.90;;;;;;5067227;28;20023;-92
2024/02/03 05:08:16;;;;;;;14.13;8.05;;;7.60;99.90;;;;;;5051876;28;20024;-92
2024/02/03 05:10:42;;;;;;;16.52;8.95;;;7.60;99.90;;;;;;5077095;28;20032;-92
2024/02/03 05:13:08;;;;;;;21.45;8.98;;;7.60;99.90;;;;;;5065245;28;20028;-92
2024/02/03 05:15:33;;;;;;;17.98;8.80;;;7.50;99.90;;;;;;5070247;28;20040;-93
2024/02/03 05:17:59;;;;;;;18.02;8.88;;;7.50;99.90;;;;;;5057737;28;20025;-93
2024/02/03 05:20:25;;;;;;;18.15;7.95;;;7.50;99.90;;;;;;5056442;28;20025;-92
2024/02/03 05:22:50;;;;;;;16.95;9.07;;;7.50;99.90;;;;;;5065191;28;20024;-93
2024/02/03 05:25:16;;;;;;;17.58;8.93;;;7.50;99.90;;;;;;5077816;28;20013;-91
2024/02/03 05:27:45;;;;;;;14.07;7.32;;;7.50;99.90;;;;;;5077565;28;20048;-92
2024/02/03 05:30:12;;;;;;;18.70;8.05;;;7.50;99.90;;;;;;5078186;28;20024;-91
2024/02/03 05:32:38;;;;;;;16.80;8.80;;;7.50;99.90;;;;;;5062449;28;20068;-92
2024/02/03 05:35:04;;;;;;;17.30;9.20;;;7.50;99.90;;;;;;5058009;28;20056;-92
2024/02/03 05:37:30;;;;;;;16.85;8.90;;;7.50;99.90;;;;;;5058155;28;20025;-91
2024/02/03 05:39:56;;;;;;;17.80;8.18;;;7.50;99.90;;;;;;5070052;28;20047;-92
2024/02/03 05:42:21;;;;;;;13.80;8.73;;;7.40;99.90;;;;;;5079250;28;20043;-92
2024/02/03 05:44:48;;;;;;;16.25;7.35;;;7.40;99.90;;;;;;5070793;28;20021;-92
2024/02/03 05:47:14;;;;;;;17.00;7.45;;;7.40;99.90;;;;;;5059220;28;20075;-92
2024/02/03 05:49:41;;;;;;;15.02;6.95;;;7.40;99.90;;;;;;5067310;28;20028;-92
2024/02/03 05:52:06;;;;;;;12.38;6.30;;;7.40;99.90;;;;;;5067387;28;20028;-93
2024/02/03 05:54:32;;;;;;;15.50;6.13;;;7.40;99.90;;;;;;5060065;28;20021;-92
2024/02/03 05:56:58;;;;;;;13.68;5.97;;;7.30;99.90;;;;;;5053051;28;20402;-92
2024/02/03 05:59:23;;;;;;;13.85;6.40;;;7.40;99.90;;;;;;5081586;28;20036;-93
2024/02/03 06:01:50;;;;;;;12.85;6.45;;;7.30;99.90;;;;;;5080577;28;20060;-92
2024/02/03 06:04:16;;;;;;;12.75;6.22;;;7.30;99.90;;;;;;5063540;28;20104;-92
2024/02/03 06:06:41;;;;;;;13.57;5.88;;;7.20;99.90;;;;;;5073948;28;20060;-92
2024/02/03 06:09:08;;;;;;;10.57;5.28;;;7.20;99.90;;;;;;5070381;28;20029;-93
2024/02/03 06:11:34;;;;;;;12.13;5.97;;;7.20;99.90;;;;;;5060428;28;20021;-92
2024/02/03 06:13:59;;;;;;;12.55;5.50;;;7.10;99.90;;;;;;5067171;28;20076;-92
2024/02/03 06:16:25;;;;;;;14.00;5.80;;;7.10;99.90;;;;;;5075036;28;20102;-93
2024/02/03 06:18:51;;;;;;;10.70;5.85;;;7.10;99.90;;;;;;5082234;28;20055;-92
2024/02/03 06:21:16;;;;;;;12.93;5.97;;;7.10;99.90;;;;;;5079274;28;20036;-92
2024/02/03 06:23:42;;;;;;;12.05;5.53;;;7.10;99.90;;;;;;5078289;28;20439;-91
2024/02/03 06:26:10;;;;;;;12.27;6.07;;;7.10;99.90;;;;;;5084171;28;20525;-92
2024/02/03 06:28:36;;;;;;;16.88;5.93;;;7.10;99.90;;;;;;5082464;28;20490;-92
2024/02/03 06:31:01;;;;;;;16.83;6.75;;;7.00;99.90;;;;;;5082531;28;20024;-91
2024/02/03 06:33:28;;;;;;;12.38;5.38;;;7.00;99.90;;;;;;5070106;28;20029;-92
2024/02/03 06:35:54;;;;;;;28.17;21.95;;;7.00;99.90;;;;;;5071669;28;20111;-93
2024/02/03 06:38:19;;;;;;;17.08;7.03;;;7.00;99.90;;;;;;5082563;28;20055;-91
2024/02/03 06:40:45;;;;;;;11.02;5.63;;;7.00;99.90;;;;;;5066731;28;20037;-92
2024/02/03 06:43:10;;;;;;;11.57;6.15;;;7.00;99.90;;;;;;5082937;28;20024;-92
2024/02/03 06:45:36;;;;;;;12.25;5.75;;;7.00;99.90;;;;;;5079224;28;20020;-92
2024/02/03 06:48:02;;;;;;;13.13;6.38;;;7.00;99.90;;;;;;5079254;28;20032;-92
2024/02/03 06:50:28;;;;;;;13.13;6.40;;;6.90;99.90;;;;;;5078866;28;20568;-91
2024/02/03 06:52:53;;;;;;;15.52;7.75;;;6.90;99.90;;;;;;5077644;28;20029;-91
2024/02/03 06:55:19;;;;;;;13.85;6.60;;;6.90;99.90;;;;;;5080110;28;20106;-93
2024/02/03 06:57:45;;;;;;;12.23;6.32;;;6.90;99.90;;;;;;5065257;28;20025;-93
2024/02/03 07:00:11;;;;;;;14.13;7.82;;;6.90;99.90;;;;;;5094040;22;20048;-92
2024/02/03 07:02:37;;;;;;;15.20;6.97;;;6.80;99.90;;;;;;5080583;28;20395;-94
2024/02/03 07:05:03;;;;;;;13.07;6.10;;;6.80;99.90;;;;;;5064309;28;20021;-91
2024/02/03 07:07:28;;;;;;;18.60;6.80;;;6.80;99.90;;;;;;5050311;28;20065;-92
2024/02/03 07:09:58;;;;;;;15.75;7.30;;;6.80;99.90;;;;;;5076183;28;20024;-92
2024/02/03 07:12:25;;;;;;;11.18;5.68;;;6.80;99.90;;;;;;5099032;28;20035;-93
2024/02/03 07:14:51;;;;;;;13.05;5.60;;;6.80;99.90;;;;;;5082287;28;20066;-93
2024/02/03 07:17:18;;;;;;;12.82;5.60;;;6.80;99.90;;;;;;5081790;28;20398;-94
2024/02/03 07:19:44;;;;;;;13.10;5.97;;;6.80;99.90;;;;;;5077706;28;20386;-92
2024/02/03 07:22:09;;;;;;;11.40;5.90;;;6.80;99.90;;;;;;5094970;28;20021;-91
2024/02/03 07:24:38;;;;;;;10.38;5.88;;;6.80;99.90;;;;;;5094499;28;20036;-92
2024/02/03 07:27:05;;;;;;;12.10;5.72;;;6.80;99.90;;;;;;5087279;28;20020;-91
2024/02/03 07:29:31;;;;;;;17.27;6.28;;;6.80;99.90;;;;;;5090660;28;20024;-94
2024/02/03 07:32:01;;;;;;;12.18;5.95;;;6.80;99.90;;;;;;5070263;28;20021;-91
2024/02/03 07:34:27;;;;;;;9.98;5.00;;;6.80;99.90;;;;;;5075790;28;20029;-92
2024/02/03 07:36:53;;;;;;;15.80;6.22;;;6.80;99.90;;;;;;5065244;28;20501;-93
2024/02/03 07:39:19;;;;;;;15.40;5.22;;;6.70;99.90;;;;;;5065372;28;20035;-91
2024/02/03 07:41:46;;;;;;;12.15;6.03;;;6.70;99.90;;;;;;5080835;28;20027;-93
2024/02/03 07:44:12;;;;;;;14.77;5.50;;;6.70;99.90;;;;;;5084407;28;20029;-92
2024/02/03 07:46:38;;;;;;;11.98;5.88;;;6.70;99.90;;;;;;5085144;28;20020;-92
2024/02/03 07:49:07;;;;;;;14.52;6.68;;;6.70;99.90;;;;;;5083976;28;20028;-91
2024/02/03 07:51:33;;;;;;;12.43;6.57;;;6.70;99.90;;;;;;5066729;28;20071;-92
2024/02/03 07:53:59;;;;;;;14.20;6.78;;;6.70;99.90;;;;;;5046909;28;20037;-92
2024/02/03 07:56:24;;;;;;;13.02;6.43;;;6.70;99.90;;;;;;5044631;28;20021;-91
2024/02/03 07:58:51;;;;;;;11.50;5.53;;;6.70;99.90;;;;;;5045170;28;20028;-91
2024/02/03 08:01:21;;;;;;;10.73;6.05;;;6.70;99.90;;;;;;5046380;28;20028;-92
2024/02/03 08:03:50;;;;;;;10.80;5.72;;;6.70;99.90;;;;;;5052474;28;20020;-92
2024/02/03 08:06:16;;;;;;;10.02;4.80;;;6.70;99.90;;;;;;5061670;28;20024;-92
2024/02/03 08:08:42;;;;;;;13.18;6.45;;;6.80;99.90;;;;;;5077029;28;20016;-91
2024/02/03 08:11:09;;;;;;;6.82;3.78;;;6.80;99.90;;;;;;5081663;28;20024;-92
2024/02/03 08:13:35;;;;;;;8.27;3.72;;;6.80;99.90;;;;;;5064112;28;20020;-90
2024/02/03 08:16:01;;;;;;;8.23;4.20;;;6.80;99.90;;;;;;5081878;28;20089;-91
2024/02/03 08:18:30;;;;;;;7.75;3.03;;;6.90;99.90;;;;;;5072836;28;20367;-91
2024/02/03 08:20:56;;;;;;;9.10;3.88;;;7.00;99.90;;;;;;5102302;28;20027;-94
2024/02/03 08:23:22;;;;;;;6.55;3.15;;;7.00;99.90;;;;;;5071319;28;20032;-92
2024/02/03 08:25:48;;;;;;;8.23;4.65;;;7.00;99.90;;;;;;5062882;28;20364;-92
2024/02/03 08:28:14;;;;;;;9.88;4.68;;;7.00;99.90;;;;;;5061686;28;20039;-94
2024/02/03 08:30:41;;;;;;;5.72;3.17;;;7.00;99.90;;;;;;5077976;28;20039;-93
2024/02/03 08:33:07;;;;;;;6.47;3.40;;;7.10;99.90;;;;;;5081717;28;20027;-92
2024/02/03 08:35:33;;;;;;;6.10;3.35;;;7.10;99.90;;;;;;5072008;28;20016;-95
2024/02/03 08:37:58;;;;;;;6.68;4.78;;;7.10;99.90;;;;;;5079685;28;20029;-93
2024/02/03 08:40:24;;;;;;;8.00;4.10;;;7.20;99.90;;;;;;5079593;28;20024;-96
2024/02/03 08:42:50;;;;;;;6.47;3.70;;;7.20;99.90;;;;;;5080131;28;20028;-96
2024/02/03 08:45:16;;;;;;;5.50;3.15;;;7.30;99.90;;;;;;5077421;28;20025;-89
2024/02/03 08:47:42;;;;;;;5.72;2.72;;;7.40;99.90;;;;;;5073980;28;20184;-92
2024/02/03 08:50:08;;;;;;;5.25;3.63;;;7.40;99.90;;;;;;5072456;28;20025;-91
2024/02/03 08:52:34;;;;;;;5.95;3.03;;;7.30;99.90;;;;;;5084557;28;20024;-91
2024/02/03 08:55:00;;;;;;;9.70;4.53;;;7.40;99.90;;;;;;5083980;28;20027;-91
2024/02/03 08:57:26;;;;;;;8.93;4.00;;;7.40;99.90;;;;;;5083061;28;20029;-91
2024/02/03 08:59:52;;;;;;;9.32;5.63;;;7.40;99.90;;;;;;5073849;28;20024;-91
2024/02/03 09:02:17;;;;;;;9.90;5.32;;;7.50;99.90;;;;;;5043885;28;20039;-91
2024/02/03 09:04:43;;;;;;;9.30;6.20;;;7.40;99.90;;;;;;5063376;28;20024;-92
2024/02/03 09:07:09;;;;;;;9.20;6.80;;;7.40;99.90;;;;;;5081733;28;20025;-91
2024/02/03 09:09:35;;;;;;;13.90;5.68;;;7.40;99.90;;;;;;5083783;28;20087;-92
2024/02/03 09:12:03;;;;;;;14.50;6.20;;;7.40;99.90;;;;;;5082196;28;20025;-91
2024/02/03 09:14:29;;;;;;;11.23;5.95;;;7.40;99.90;;;;;;5081183;28;20032;-91
2024/02/03 09:16:55;;;;;;;11.02;6.90;;;7.40;99.90;;;;;;5054500;28;20471;-91
2024/02/03 09:19:21;;;;;;;10.73;5.32;;;7.50;99.90;;;;;;5074983;28;20028;-91
2024/02/03 09:21:47;;;;;;;11.57;6.00;;;7.60;99.90;;;;;;5083303;28;20028;-91
2024/02/03 09:24:14;;;;;;;11.52;6.15;;;7.60;99.90;;;;;;5083947;28;20080;-92
2024/02/03 09:26:40;;;;;;;9.48;6.03;;;7.60;99.90;;;;;;5065600;28;20012;-92
2024/02/03 09:29:07;;;;;;;11.43;6.63;;;7.50;99.90;;;;;;5082851;28;20108;-91
2024/02/03 09:31:36;;;;;;;13.82;7.03;;;7.60;99.90;;;;;;5062853;28;20021;-92
2024/02/03 09:34:04;;;;;;;14.25;7.45;;;7.60;99.90;;;;;;5067028;28;20025;-92
2024/02/03 09:36:33;;;;;;;15.32;7.05;;;7.60;99.90;;;;;;5067144;28;20070;-90
2024/02/03 09:38:59;;;;;;;16.23;9.60;;;7.70;99.90;;;;;;5086047;28;20032;-92
2024/02/03 09:41:26;;;;;;;12.20;6.75;;;7.70;99.90;;;;;;5087561;28;20051;-91
2024/02/03 09:43:55;;;;;;;15.70;8.27;;;7.70;99.90;;;;;;5087088;28;20415;-92
2024/02/03 09:46:21;;;;;;;16.60;7.82;;;7.70;99.90;;;;;;5048169;28;20114;-92
2024/02/03 09:48:47;;;;;;;13.55;6.68;;;7.70;99.90;;;;;;5065727;28;20434;-94
2024/02/03 09:51:13;;;;;;;12.73;6.68;;;7.80;99.90;;;;;;5062185;28;20112;-92
2024/02/03 09:53:38;;;;;;;14.52;7.38;;;7.90;99.90;;;;;;5074896;28;20029;-92
2024/02/03 09:56:05;;;;;;;11.68;6.18;;;8.00;99.90;;;;;;5061035;28;20039;-92
2024/02/03 09:58:31;;;;;;;10.88;6.63;;;8.00;99.90;;;;;;5085001;28;20032;-91
2024/02/03 10:00:57;;;;;;;14.32;6.75;;;8.10;99.90;;;;;;5050724;28;20040;-92
2024/02/03 10:03:23;;;;;;;11.68;6.47;;;8.30;99.90;;;;;;5078187;28;20036;-91
2024/02/03 10:05:58;;;;;;;10.48;5.28;;;8.40;99.90;;;;;;5085964;28;20048;-92
2024/02/03 10:08:23;;;;;;;9.57;5.13;;;8.40;99.90;;;;;;5066905;28;20066;-92
2024/02/03 10:10:55;;;;;;;8.38;5.45;;;8.40;99.90;;;;;;5064430;28;20032;-91
2024/02/03 10:13:25;;;;;;;10.55;5.63;;;8.40;99.90;;;;;;5067000;28;20036;-91
2024/02/03 10:16:04;;;;;;;7.18;3.42;;;8.50;99.90;;;;;;5086301;28;20024;-91
2024/02/03 10:18:34;;;;;;;5.40;3.72;;;8.50;99.20;;;;;;5058548;28;20077;-92
2024/02/03 10:21:02;;;;;;;6.30;2.95;;;8.50;99.60;;;;;;5084728;28;20032;-91
2024/02/03 10:23:29;;;;;;;6.63;3.67;;;8.70;99.90;;;;;;5067504;28;20025;-90
2024/02/03 10:26:00;;;;;;;6.55;3.13;;;8.80;97.70;;;;;;5079553;28;20081;-91
2024/02/03 10:28:27;;;;;;;6.85;3.83;;;8.80;98.50;;;;;;5085755;28;20070;-93
2024/02/03 10:30:56;;;;;;;6.72;3.47;;;8.80;98.70;;;;;;5085648;28;20150;-92
2024/02/03 10:33:23;;;;;;;5.30;3.03;;;8.80;97.20;;;;;;5066827;28;20054;-92
2024/02/03 10:35:49;;;;;;;5.20;3.33;;;8.80;97.30;;;;;;5065843;28;20035;-90
2024/02/03 10:38:15;;;;;;;7.00;3.75;;;8.80;96.50;;;;;;5071695;28;20060;-91
2024/02/03 10:40:41;;;;;;;4.00;3.08;;;9.00;98.00;;;;;;5061577;28;20055;-92
2024/02/03 10:43:27;;;;;;;7.45;3.55;;;9.20;96.40;;;;;;5082183;28;20052;-94
2024/02/03 10:46:00;;;;;;;7.78;3.28;;;9.20;96.90;;;;;;5078436;28;20037;-93
2024/02/03 10:48:28;;;;;;;7.72;4.93;;;9.10;97.10;;;;;;5080498;28;20052;-90
2024/02/03 10:50:59;;;;;;;;;;;9.20;96.90;;;;;;5091285;28;20063;-93
2024/02/03 10:54:01;;;;;;;5.55;2.85;;;9.20;97.70;;;;;;5092789;28;19931;-92
2024/02/03 10:56:29;;;;;;;4.75;2.53;;;8.90;95.70;;;;;;5066220;28;20060;-89
2024/02/03 10:58:54;;;;;;;8.73;3.22;;;8.90;96.00;;;;;;5065442;28;20025;-93
2024/02/03 11:01:23;;;;;;;4.10;2.60;;;8.80;96.10;;;;;;5058266;28;20033;-91
2024/02/03 11:03:52;;;;;;;4.28;2.72;;;8.80;96.70;;;;;;5049398;28;20029;-91
2024/02/03 11:06:31;;;;;;;4.60;2.97;;;8.80;97.20;;;;;;5096906;28;20031;-91
2024/02/03 11:09:18;;;;;;;7.93;3.22;;;8.70;97.30;;;;;;5084742;28;20024;-90
2024/02/03 11:11:44;;;;;;;;;;;8.70;97.40;;;;;;5053560;28;20037;-92
2024/02/03 11:14:32;;;;;;;4.65;2.65;;;8.60;98.10;;;;;;5083289;28;19928;-92
2024/02/03 11:17:05;;;;;;;6.45;3.88;;;8.50;99.10;;;;;;5066573;28;20032;-93
2024/02/03 11:19:32;;;;;;;6.10;3.63;;;8.40;99.80;;;;;;5078172;28;20029;-91
2024/02/03 11:22:00;;;;;;;7.07;4.28;;;8.30;99.50;;;;;;5069754;28;20029;-92
2024/02/03 11:24:26;;;;;;;7.35;3.97;;;8.40;99.90;;;;;;5086377;28;20025;-92
2024/02/03 11:27:07;;;;;;;7.70;4.57;;;8.50;99.90;;;;;;5065987;28;20105;-92
2024/02/03 11:29:32;;;;;;;8.55;3.95;;;8.40;99.10;;;;;;5063331;28;20024;-89
2024/02/03 11:32:03;;;;;;;8.30;6.00;;;8.40;99.70;;;;;;5076756;28;20025;-92
2024/02/03 11:34:30;;;;;;;10.82;4.72;;;8.40;99.40;;;;;;5086848;28;20028;-91
2024/02/03 11:36:56;;;;;;;7.97;4.80;;;8.50;99.90;;;;;;5067435;28;20093;-93
2024/02/03 11:39:34;;;;;;;8.20;5.28;;;8.60;99.90;;;;;;5083896;28;20020;-90
2024/02/03 11:42:05;;;;;;;9.82;5.35;;;8.60;99.70;;;;;;5082942;28;20021;-91
2024/02/03 11:44:57;;;;;;;10.35;5.93;;;8.50;99.90;;;;;;5083888;28;20051;-92
2024/02/03 11:47:23;;;;;;;10.23;6.55;;;8.40;99.90;;;;;;5084251;28;20021;-92
2024/02/03 11:49:50;;;;;;;10.50;6.47;;;8.50;99.90;;;;;;5083302;28;20479;-91
2024/02/03 11:52:16;;;;;;;11.27;6.03;;;8.50;99.90;;;;;;5085202;28;20038;-91
2024/02/03 11:54:42;;;;;;;10.25;5.78;;;8.60;99.70;;;;;;5076054;28;20028;-93
2024/02/03 11:57:08;;;;;;;10.88;5.65;;;8.70;99.70;;;;;;5077188;28;20028;-90
2024/02/03 11:59:34;;;;;;;11.25;5.70;;;8.60;99.90;;;;;;5087959;28;20035;-93
2024/02/03 12:02:00;;;;;;;11.02;5.43;;;8.70;99.90;;;;;;5083242;28;20025;-92
2024/02/03 12:04:27;;;;;;;10.85;5.00;;;8.60;99.50;;;;;;5084492;28;20376;-91
2024/02/03 12:06:55;;;;;;;13.73;6.85;;;8.70;99.90;;;;;;5084475;28;20507;-91
2024/02/03 12:09:21;;;;;;;10.20;6.35;;;8.70;99.50;;;;;;5066636;28;20098;-92
2024/02/03 12:11:48;;;;;;;9.70;5.90;;;8.70;99.50;;;;;;5059620;28;20052;-91
2024/02/03 12:14:14;;;;;;;9.45;4.82;;;8.80;99.90;;;;;;5083720;28;20017;-90
2024/02/03 12:16:44;;;;;;;10.38;5.53;;;8.80;99.50;;;;;;5085909;28;20425;-92
2024/02/03 12:19:10;;;;;;;8.80;4.65;;;8.80;99.30;;;;;;5084336;28;20036;-90
2024/02/03 12:21:36;;;;;;;10.48;5.07;;;8.70;98.70;;;;;;5064783;28;20036;-91
2024/02/03 12:24:02;;;;;;;10.90;4.97;;;8.70;99.30;;;;;;5066686;28;20035;-91
2024/02/03 12:26:28;;;;;;;9.27;6.22;;;8.70;99.20;;;;;;5065343;28;20024;-90
2024/02/03 12:28:54;;;;;;;17.58;7.55;;;8.80;99.10;;;;;;5083055;28;20024;-92
2024/02/03 12:31:20;;;;;;;11.27;6.50;;;8.90;98.80;;;;;;5066585;28;20036;-91
2024/02/03 12:33:46;;;;;;;9.85;6.57;;;8.80;98.10;;;;;;5064969;28;20024;-91
2024/02/03 12:36:12;;;;;;;8.73;5.90;;;8.90;98.70;;;;;;5062097;28;20115;-91
2024/02/03 12:38:38;;;;;;;9.15;4.85;;;8.80;98.30;;;;;;5063844;28;20108;-92
2024/02/03 12:41:04;;;;;;;15.27;5.43;;;8.90;99.10;;;;;;5079746;28;20071;-92
2024/02/03 12:43:30;;;;;;;10.70;5.80;;;9.00;98.80;;;;;;5052819;28;20036;-95
2024/02/03 12:45:56;;;;;;;10.35;5.63;;;8.90;97.80;;;;;;5064283;28;20111;-91
2024/02/03 12:48:22;;;;;;;8.07;5.03;;;8.90;98.60;;;;;;5063605;28;20100;-90